Time;durP1;ratioP1;P1;durP2;ratioP2;P2;SDS_P1;SDS_P2;PMS_P1;PMS_P2;Temp;Humidity;BMP_temperature;BMP_pressure;BME280_temperature;BME280_humidity;BME280_pressure;Samples;Min_cycle;Max_cycle;Signal;HPM_P1;HPM_P2
2022/03/07 00:01:30;;;;;;;;;;;;;;;1.96;59.28;100021.09;4439858;32;33417;-85
2022/03/07 00:03:55;;;;;;;;;;;;;;;1.89;59.28;100021.88;4440640;32;19969;-85
2022/03/07 00:06:21;;;;;;;;;;;;;;;1.71;59.27;100012.34;4440498;32;19991;-85
2022/03/07 00:08:46;;;;;;;;;;;;;;;1.89;59.28;100021.88;4426501;32;19997;-85
2022/03/07 00:11:12;;;;;;;;;;;;;;;1.66;59.27;100021.72;4440522;32;19969;-86
2022/03/07 00:13:37;;;;;;;;;;;;;;;1.74;59.28;100029.47;4440398;32;19994;-85
2022/03/07 00:16:02;;;;;;;;;;;;;;;1.88;59.28;100017.59;4425301;32;32319;-85
2022/03/07 00:18:28;;;;;;;;;;;;;;;2.09;59.29;100020.31;4426589;32;19995;-85
2022/03/07 00:20:53;;;;;;;;;;;;;;;1.90;59.28;100023.63;4425995;32;19993;-85
2022/03/07 00:23:18;;;;;;;;;;;;;;;2.00;59.29;100024.53;4425794;32;25105;-86
2022/03/07 00:25:43;;;;;;;;;;;;;;;1.93;59.29;100022.78;4440239;32;20017;-85
2022/03/07 00:28:08;;;;;;;;;;;;;;;1.89;59.28;100026.16;4425657;32;30423;-85
2022/03/07 00:30:34;;;;;;;;;;;;;;;1.89;59.28;100031.28;4439927;32;20009;-86
2022/03/07 00:32:59;;;;;;;;;;;;;;;1.91;59.28;100035.59;4426373;32;20026;-85
2022/03/07 00:35:24;;;;;;;;;;;;;;;1.98;59.28;100033.94;4425839;32;21233;-85
2022/03/07 00:37:49;;;;;;;;;;;;;;;1.94;59.29;100027.91;4426164;32;20310;-85
2022/03/07 00:40:15;;;;;;;;;;;;;;;1.99;59.30;100030.50;4426159;32;20315;-85
2022/03/07 00:42:40;;;;;;;;;;;;;;;2.22;59.30;100026.38;4413685;32;19974;-85
2022/03/07 00:45:06;;;;;;;;;;;;;;;2.21;59.29;100021.25;4426296;32;19985;-85
2022/03/07 00:47:31;;;;;;;;;;;;;;;2.12;59.30;100030.59;4426432;32;19994;-86
2022/03/07 00:49:56;;;;;;;;;;;;;;;2.32;59.31;100017.00;4426324;32;19981;-85
2022/03/07 00:52:22;;;;;;;;;;;;;;;2.31;59.31;100021.28;4440070;32;19974;-86
2022/03/07 00:54:47;;;;;;;;;;;;;;;2.28;59.30;100020.41;4439995;32;22166;-86
2022/03/07 00:57:12;;;;;;;;;;;;;;;2.40;59.31;100020.50;4412862;32;28736;-86
2022/03/07 00:59:37;;;;;;;;;;;;;;;2.28;59.30;100015.28;4440403;32;19973;-86
2022/03/07 01:02:03;;;;;;;;;;;;;;;2.01;59.28;100021.97;4440355;32;19986;-86
2022/03/07 01:04:28;;;;;;;;;;;;;;;2.12;59.29;100009.19;4440326;32;19981;-86
2022/03/07 01:06:53;;;;;;;;;;;;;;;2.14;59.30;100010.09;4425728;32;27104;-86
2022/03/07 01:09:18;;;;;;;;;;;;;;;2.25;59.30;100011.00;4440355;32;20333;-86
2022/03/07 01:11:44;;;;;;;;;;;;;;;2.23;59.31;100005.00;4440323;32;20054;-86
2022/03/07 01:14:09;;;;;;;;;;;;;;;2.19;59.30;100003.25;4425990;32;19996;-86
2022/03/07 01:16:34;;;;;;;;;;;;;;;2.19;59.30;100004.97;4426277;32;20246;-85
2022/03/07 01:19:00;;;;;;;;;;;;;;;2.15;59.30;100007.53;4440374;32;19977;-86
2022/03/07 01:21:25;;;;;;;;;;;;;;;2.06;59.29;100007.44;4413437;32;20254;-85
2022/03/07 01:23:50;;;;;;;;;;;;;;;2.20;59.30;100001.56;4413459;32;19974;-86
2022/03/07 01:26:16;;;;;;;;;;;;;;;2.18;59.30;100003.25;4425363;32;20050;-86
2022/03/07 01:28:41;;;;;;;;;;;;;;;2.37;59.31;100002.50;4425092;32;23261;-86
2022/03/07 01:31:07;;;;;;;;;;;;;;;2.26;59.30;100007.56;4425748;32;20014;-86
2022/03/07 01:33:32;;;;;;;;;;;;;;;2.30;59.31;100008.44;4426038;32;19977;-85
2022/03/07 01:35:57;;;;;;;;;;;;;;;2.11;59.29;99995.50;4425249;32;29559;-86
2022/03/07 01:38:22;;;;;;;;;;;;;;;2.20;59.29;99992.13;4425400;32;24812;-86
2022/03/07 01:40:48;;;;;;;;;;;;;;;2.02;59.29;99995.44;4425669;32;19984;-86
2022/03/07 01:43:13;;;;;;;;;;;;;;;2.15;59.30;99996.41;4425811;32;19992;-86
2022/03/07 01:45:41;;;;;;;;;;;;;;;2.26;59.30;99991.31;4413099;32;20274;-86
2022/03/07 01:48:07;;;;;;;;;;;;;;;2.07;59.30;99995.47;4413060;32;19994;-85
2022/03/07 01:50:32;;;;;;;;;;;;;;;2.26;59.31;99991.31;4425602;32;20333;-85
2022/03/07 01:52:57;;;;;;;;;;;;;;;2.14;59.30;99990.41;4412913;32;19981;-85
2022/03/07 01:55:23;;;;;;;;;;;;;;;2.15;59.30;99994.69;4439806;32;19981;-85
2022/03/07 01:57:49;;;;;;;;;;;;;;;2.15;59.30;99997.25;4439241;32;20278;-85
2022/03/07 02:00:15;;;;;;;;;;;;;;;2.28;59.30;99994.75;4425609;32;20045;-86
2022/03/07 02:02:41;;;;;;;;;;;;;;;2.23;59.30;99997.28;4439699;32;19966;-85
2022/03/07 02:05:07;;;;;;;;;;;;;;;2.33;59.30;99999.03;4439611;32;20008;-86
2022/03/07 02:07:32;;;;;;;;;;;;;;;2.41;59.31;99999.97;4425321;32;20000;-85
2022/03/07 02:09:57;;;;;;;;;;;;;;;2.42;59.31;100003.37;4425550;32;19990;-85
2022/03/07 02:12:22;;;;;;;;;;;;;;;2.36;59.32;99993.06;4412779;32;19997;-84
2022/03/07 02:14:48;;;;;;;;;;;;;;;2.27;59.30;99987.88;4425426;32;20037;-85
2022/03/07 02:17:13;;;;;;;;;;;;;;;2.37;59.31;99997.38;4425510;32;20001;-86
2022/03/07 02:19:38;;;;;;;;;;;;;;;2.32;59.31;99994.75;4425483;32;20590;-85
2022/03/07 02:22:03;;;;;;;;;;;;;;;2.26;59.30;99991.31;4425455;32;20042;-85
2022/03/07 02:24:29;;;;;;;;;;;;;;;2.29;59.31;99987.03;4425288;32;20002;-85
2022/03/07 02:26:55;;;;;;;;;;;;;;;2.17;59.30;99986.13;4439135;32;20023;-85
2022/03/07 02:29:20;;;;;;;;;;;;;;;2.11;59.29;99986.94;4425551;32;20038;-85
2022/03/07 02:31:45;;;;;;;;;;;;;;;2.04;59.29;99987.75;4438813;32;27643;-85
2022/03/07 02:34:11;;;;;;;;;;;;;;;2.03;59.29;99986.91;4439365;32;20279;-85
2022/03/07 02:36:36;;;;;;;;;;;;;;;1.90;59.28;99982.56;4425310;32;19991;-85
2022/03/07 02:39:01;;;;;;;;;;;;;;;1.67;59.27;99986.66;4427195;32;32129;-84
2022/03/07 02:41:26;;;;;;;;;;;;;;;1.54;59.26;99983.97;4429594;32;30539;-84
2022/03/07 02:43:51;;;;;;;;;;;;;;;1.58;59.26;99994.25;4430232;32;19996;-84
2022/03/07 02:46:17;;;;;;;;;;;;;;;1.49;59.26;99995.06;4430316;32;19990;-84
2022/03/07 02:48:42;;;;;;;;;;;;;;;1.63;59.27;99990.88;4430246;32;19973;-85
2022/03/07 02:51:07;;;;;;;;;;;;;;;1.62;59.26;99996.00;4443873;32;20025;-84
2022/03/07 02:53:33;;;;;;;;;;;;;;;1.57;59.26;99993.41;4430240;32;20039;-85
2022/03/07 02:55:58;;;;;;;;;;;;;;;1.51;59.25;100006.19;4430204;32;19977;-85
2022/03/07 02:58:23;;;;;;;;;;;;;;;1.75;59.28;100000.41;4443825;32;20337;-86
2022/03/07 03:00:48;;;;;;;;;;;;;;;1.72;59.27;100008.06;4417138;32;20290;-86
2022/03/07 03:03:13;;;;;;;;;;;;;;;1.66;59.27;100010.59;4429720;32;20025;-86
2022/03/07 03:05:39;;;;;;;;;;;;;;;1.54;59.26;100008.78;4416598;32;22707;-85
2022/03/07 03:08:04;;;;;;;;;;;;;;;1.83;59.27;100011.56;4429848;32;19992;-86
2022/03/07 03:10:29;;;;;;;;;;;;;;;1.62;59.26;100007.13;4443915;32;19980;-86
2022/03/07 03:12:55;;;;;;;;;;;;;;;1.78;59.28;100005.53;4443952;32;20004;-84
2022/03/07 03:15:20;;;;;;;;;;;;;;;1.82;59.27;100009.84;4443983;32;20011;-85
2022/03/07 03:17:45;;;;;;;;;;;;;;;1.75;59.27;100015.78;4443533;32;19981;-84
2022/03/07 03:20:11;;;;;;;;;;;;;;;1.73;59.27;100010.66;4417034;32;20009;-84
2022/03/07 03:22:39;;;;;;;;;;;;;;;1.79;59.28;100012.41;4443817;32;19989;-85
2022/03/07 03:25:05;;;;;;;;;;;;;;;1.81;59.28;100020.97;4429739;32;20009;-85
2022/03/07 03:27:30;;;;;;;;;;;;;;;1.75;59.27;100020.91;4429687;32;19974;-85
2022/03/07 03:29:55;;;;;;;;;;;;;;;1.75;59.27;100024.34;4429678;32;19997;-84
2022/03/07 03:32:20;;;;;;;;;;;;;;;1.73;59.27;100028.62;4429576;32;19993;-85
2022/03/07 03:34:45;;;;;;;;;;;;;;;1.69;59.26;100029.44;4429073;32;26973;-85
2022/03/07 03:37:11;;;;;;;;;;;;;;;1.77;59.28;100027.78;4443007;32;30358;-84
2022/03/07 03:39:37;;;;;;;;;;;;;;;1.76;59.27;100025.22;4429463;32;19966;-84
2022/03/07 03:42:02;;;;;;;;;;;;;;;1.78;59.28;100026.94;4429563;32;20349;-85
2022/03/07 03:44:28;;;;;;;;;;;;;;;1.68;59.27;100032.00;4443485;32;19969;-84
2022/03/07 03:46:53;;;;;;;;;;;;;;;1.62;59.26;100022.50;4429050;32;20147;-84
2022/03/07 03:49:18;;;;;;;;;;;;;;;1.72;59.27;100028.59;4442826;32;20013;-85
2022/03/07 03:51:43;;;;;;;;;;;;;;;1.62;59.26;100030.22;4426149;32;19985;-86
2022/03/07 03:54:09;;;;;;;;;;;;;;;1.68;59.27;100032.84;4440623;32;19992;-85
2022/03/07 03:56:34;;;;;;;;;;;;;;;1.63;59.27;100034.50;4413463;32;22666;-84
2022/03/07 03:58:59;;;;;;;;;;;;;;;1.71;59.27;100029.44;4440183;32;19965;-84
2022/03/07 04:01:24;;;;;;;;;;;;;;;1.66;59.27;100029.41;4440732;32;20025;-83
2022/03/07 04:03:49;;;;;;;;;;;;;;;1.46;59.26;100036.06;4425644;32;32880;-85
2022/03/07 04:06:15;;;;;;;;;;;;;;;1.25;59.25;100031.59;4413275;32;19986;-85
2022/03/07 04:08:40;;;;;;;;;;;;;;;1.46;59.25;100030.94;4413773;32;19988;-85
2022/03/07 04:11:05;;;;;;;;;;;;;;;1.57;59.26;100029.31;4426243;32;20000;-85
2022/03/07 04:13:30;;;;;;;;;;;;;;;1.61;59.27;100023.37;4439882;32;31023;-86
2022/03/07 04:15:55;;;;;;;;;;;;;;;1.63;59.26;100023.37;4439746;32;27286;-85
2022/03/07 04:18:21;;;;;;;;;;;;;;;1.63;59.26;100020.81;4439976;32;27637;-85
2022/03/07 04:20:46;;;;;;;;;;;;;;;1.52;59.26;100025.88;4425845;32;23500;-86
2022/03/07 04:23:12;;;;;;;;;;;;;;;1.37;59.25;100026.56;4426421;32;19985;-85
2022/03/07 04:25:37;;;;;;;;;;;;;;;1.45;59.25;100022.41;4440443;32;19993;-86
2022/03/07 04:28:02;;;;;;;;;;;;;;;1.44;59.25;100022.38;4426488;32;20606;-85
2022/03/07 04:30:28;;;;;;;;;;;;;;;1.22;59.24;100021.31;4426211;32;20022;-85
2022/03/07 04:32:53;;;;;;;;;;;;;;;1.34;59.26;100026.53;4413466;32;19993;-85
2022/03/07 04:35:18;;;;;;;;;;;;;;;1.53;59.26;100036.13;4425624;32;27236;-85
2022/03/07 04:37:43;;;;;;;;;;;;;;;1.55;59.27;100038.72;4440436;32;19962;-86
2022/03/07 04:40:11;;;;;;;;;;;;;;;1.61;59.26;100038.75;4426085;32;20004;-86
2022/03/07 04:42:36;;;;;;;;;;;;;;;1.72;59.27;100033.72;4413554;32;19997;-86
2022/03/07 04:45:02;;;;;;;;;;;;;;;1.88;59.28;100035.56;4426252;32;19995;-86
2022/03/07 04:47:27;;;;;;;;;;;;;;;1.93;59.29;100033.03;4426359;32;19977;-86
2022/03/07 04:49:52;;;;;;;;;;;;;;;1.93;59.29;100031.34;4440170;32;20103;-85
2022/03/07 04:52:17;;;;;;;;;;;;;;;1.88;59.28;100032.12;4426053;32;19977;-85
2022/03/07 04:54:42;;;;;;;;;;;;;;;1.98;59.29;100032.22;4440074;32;20318;-84
2022/03/07 04:57:08;;;;;;;;;;;;;;;1.98;59.29;100031.38;4440000;32;20256;-84
2022/03/07 04:59:33;;;;;;;;;;;;;;;2.18;59.30;100031.50;4425470;32;27786;-85
2022/03/07 05:01:58;;;;;;;;;;;;;;;2.20;59.30;100027.22;4424229;32;22042;-84
2022/03/07 05:04:23;;;;;;;;;;;;;;;2.11;59.30;100021.16;4440047;32;19978;-86
2022/03/07 05:06:49;;;;;;;;;;;;;;;1.89;59.28;100028.72;4425980;32;19981;-86
2022/03/07 05:09:14;;;;;;;;;;;;;;;1.91;59.28;100035.59;4439435;32;30427;-86
2022/03/07 05:11:39;;;;;;;;;;;;;;;2.04;59.29;100032.25;4425509;32;20016;-86
2022/03/07 05:14:04;;;;;;;;;;;;;;;1.93;59.29;100033.91;4426050;32;20005;-86
2022/03/07 05:16:30;;;;;;;;;;;;;;;2.08;59.29;100044.25;4425228;32;21006;-86
2022/03/07 05:18:55;;;;;;;;;;;;;;;2.10;59.29;100037.44;4440146;32;20281;-86
2022/03/07 05:21:21;;;;;;;;;;;;;;;2.08;59.30;100038.25;4413269;32;20037;-86
2022/03/07 05:23:46;;;;;;;;;;;;;;;1.98;59.28;100036.50;4425899;32;20238;-86
2022/03/07 05:26:11;;;;;;;;;;;;;;;2.01;59.29;100036.50;4440052;32;19992;-86
2022/03/07 05:28:36;;;;;;;;;;;;;;;2.11;59.29;100028.00;4439828;32;20018;-86
2022/03/07 05:31:02;;;;;;;;;;;;;;;2.05;59.29;100039.09;4440033;32;20007;-84
2022/03/07 05:33:27;;;;;;;;;;;;;;;2.18;59.30;100023.81;4425833;32;20033;-84
2022/03/07 05:35:52;;;;;;;;;;;;;;;2.09;59.30;100038.28;4412366;32;34642;-85
2022/03/07 05:38:17;;;;;;;;;;;;;;;2.13;59.30;100034.91;4439978;32;20019;-87
2022/03/07 05:40:42;;;;;;;;;;;;;;;2.22;59.30;100035.81;4439884;32;19986;-85
2022/03/07 05:43:08;;;;;;;;;;;;;;;2.39;59.31;100039.34;4439683;32;19982;-85
2022/03/07 05:45:34;;;;;;;;;;;;;;;2.19;59.30;100039.22;4425268;32;28135;-85
2022/03/07 05:47:59;;;;;;;;;;;;;;;2.38;59.31;100041.06;4425765;32;19989;-86
2022/03/07 05:50:24;;;;;;;;;;;;;;;2.29;59.31;100042.69;4425100;32;29628;-84
2022/03/07 05:52:49;;;;;;;;;;;;;;;2.26;59.31;100040.09;4425740;32;19981;-83
2022/03/07 05:55:15;;;;;;;;;;;;;;;2.14;59.30;100044.31;4425664;32;19981;-84
2022/03/07 05:57:40;;;;;;;;;;;;;;;2.14;59.30;100034.06;4425570;32;20243;-85
2022/03/07 06:00:06;;;;;;;;;;;;;;;2.15;59.30;100043.47;4439266;32;26716;-85
2022/03/07 06:02:31;;;;;;;;;;;;;;;2.15;59.30;100045.19;4440109;32;20035;-86
2022/03/07 06:04:56;;;;;;;;;;;;;;;2.09;59.30;100045.13;4439552;32;19969;-86
2022/03/07 06:07:21;;;;;;;;;;;;;;;2.06;59.29;100043.41;4439032;32;24559;-86
2022/03/07 06:09:47;;;;;;;;;;;;;;;2.16;59.30;100039.19;4425655;32;20360;-85
2022/03/07 06:12:12;;;;;;;;;;;;;;;2.35;59.30;100042.72;4439607;32;19978;-86
2022/03/07 06:14:37;;;;;;;;;;;;;;;2.32;59.31;100046.12;4424593;32;23207;-85
2022/03/07 06:17:02;;;;;;;;;;;;;;;2.19;59.29;100049.50;4412607;32;20024;-85
2022/03/07 06:19:28;;;;;;;;;;;;;;;2.35;59.31;100047.84;4439429;32;20302;-86
2022/03/07 06:21:53;;;;;;;;;;;;;;;2.47;59.31;100055.66;4439580;32;19977;-86
2022/03/07 06:24:18;;;;;;;;;;;;;;;2.38;59.31;100053.03;4439212;32;20041;-86
2022/03/07 06:26:43;;;;;;;;;;;;;;;2.41;59.31;100053.06;4424880;32;26217;-86
2022/03/07 06:29:09;;;;;;;;;;;;;;;2.53;59.32;100057.37;4425280;32;19997;-86
2022/03/07 06:31:34;;;;;;;;;;;;;;;2.33;59.30;100060.69;4425016;32;20008;-86
2022/03/07 06:33:59;;;;;;;;;;;;;;;2.53;59.32;100060.81;4439357;32;20005;-85
2022/03/07 06:36:24;;;;;;;;;;;;;;;2.49;59.31;100061.66;4424726;32;20024;-86
2022/03/07 06:38:49;;;;;;;;;;;;;;;2.76;59.34;100056.63;4439393;32;19993;-86
2022/03/07 06:41:15;;;;;;;;;;;;;;;2.54;59.32;100061.66;4424993;32;20311;-85
2022/03/07 06:43:40;;;;;;;;;;;;;;;2.58;59.33;100061.69;4424881;32;20230;-86
2022/03/07 06:46:05;;;;;;;;;;;;;;;2.83;59.34;100056.66;4439237;32;19982;-85
2022/03/07 06:48:31;;;;;;;;;;;;;;;2.84;59.33;100056.69;4438891;32;19977;-86
2022/03/07 06:50:56;;;;;;;;;;;;;;;3.02;59.34;100058.44;4424944;32;19997;-86
2022/03/07 06:53:21;;;;;;;;;;;;;;;3.07;59.35;100061.88;4423973;32;29323;-86
2022/03/07 06:55:46;;;;;;;;;;;;;;;3.02;59.35;100059.31;4411584;32;31018;-86
2022/03/07 06:58:12;;;;;;;;;;;;;;;2.90;59.34;100061.00;4424799;32;20337;-85
2022/03/07 07:00:37;;;;;;;;;;;;;;;3.08;59.35;100067.06;4424829;32;19986;-85
2022/03/07 07:03:02;;;;;;;;;;;;;;;3.07;59.35;100062.75;4425022;32;19970;-85
2022/03/07 07:05:28;;;;;;;;;;;;;;;3.20;59.36;100058.50;4411806;32;20027;-85
2022/03/07 07:07:53;;;;;;;;;;;;;;;3.14;59.35;100067.94;4438845;32;20000;-84
2022/03/07 07:10:19;;;;;;;;;;;;;;;3.14;59.36;100065.38;4424613;32;19990;-85
2022/03/07 07:12:44;;;;;;;;;;;;;;;3.21;59.36;100064.50;4424761;32;20005;-85
2022/03/07 07:15:10;;;;;;;;;;;;;;;3.51;59.37;100059.44;4424767;32;20259;-85
2022/03/07 07:17:35;;;;;;;;;;;;;;;3.56;59.38;100055.16;4424660;32;20029;-85
2022/03/07 07:20:00;;;;;;;;;;;;;;;3.62;59.38;100067.19;4424191;32;19990;-85
2022/03/07 07:22:26;;;;;;;;;;;;;;;3.71;59.39;100064.59;4424355;32;19970;-85
2022/03/07 07:24:51;;;;;;;;;;;;;;;3.65;59.38;100064.59;4438079;32;20333;-85
2022/03/07 07:27:16;;;;;;;;;;;;;;;3.49;59.37;100063.72;4426457;32;19994;-86
2022/03/07 07:29:41;;;;;;;;;;;;;;;3.51;59.37;100059.44;4426381;32;20306;-85
2022/03/07 07:32:07;;;;;;;;;;;;;;;3.75;59.40;100068.88;4440231;32;19996;-84
2022/03/07 07:34:32;;;;;;;;;;;;;;;4.04;59.41;100074.06;4413887;32;19990;-85
2022/03/07 07:36:57;;;;;;;;;;;;;;;4.23;59.42;100078.31;4413687;32;20030;-86
2022/03/07 07:39:22;;;;;;;;;;;;;;;4.42;59.42;100088.63;4440511;32;19977;-85
2022/03/07 07:41:48;;;;;;;;;;;;;;;4.46;59.43;100091.16;4426137;32;20273;-84
2022/03/07 07:44:13;;;;;;;;;;;;;;;4.44;59.43;100081.72;4426506;32;20012;-84
2022/03/07 07:46:38;;;;;;;;;;;;;;;4.06;59.41;100085.22;4440728;32;19977;-84
2022/03/07 07:49:03;;;;;;;;;;;;;;;4.26;59.42;100085.22;4426394;32;19981;-84
2022/03/07 07:51:29;;;;;;;;;;;;;;;4.08;59.41;100087.81;4426320;32;20001;-83
2022/03/07 07:53:54;;;;;;;;;;;;;;;4.33;59.42;100092.06;4413482;32;20039;-83
2022/03/07 07:56:19;;;;;;;;;;;;;;;4.41;59.43;100089.47;4413073;32;33872;-83
2022/03/07 07:58:44;;;;;;;;;;;;;;;4.42;59.43;100092.03;4426371;32;20013;-84
2022/03/07 08:01:10;;;;;;;;;;;;;;;4.40;59.42;100109.22;4426466;32;19988;-84
2022/03/07 08:03:35;;;;;;;;;;;;;;;4.48;59.43;100107.50;4440381;32;19985;-84
2022/03/07 08:06:00;;;;;;;;;;;;;;;4.52;59.43;100106.66;4426508;32;20615;-82
2022/03/07 08:08:26;;;;;;;;;;;;;;;4.36;59.42;100111.81;4439621;32;20019;-83
2022/03/07 08:10:51;;;;;;;;;;;;;;;4.15;59.41;100120.41;4425341;32;19992;-84
2022/03/07 08:13:16;;;;;;;;;;;;;;;4.41;59.42;100123.84;4439855;32;20276;-84
2022/03/07 08:15:41;;;;;;;;;;;;;;;4.26;59.41;100124.72;4426608;32;19994;-85
2022/03/07 08:18:07;;;;;;;;;;;;;;;4.20;59.42;100118.69;4425471;32;33026;-84
2022/03/07 08:20:32;;;;;;;;;;;;;;;3.98;59.41;100126.41;4440379;32;20050;-85
2022/03/07 08:22:57;;;;;;;;;;;;;;;3.95;59.40;100123.84;4440065;32;19982;-85
2022/03/07 08:25:22;;;;;;;;;;;;;;;4.08;59.41;100118.72;4440455;32;19997;-85
2022/03/07 08:27:48;;;;;;;;;;;;;;;4.11;59.41;100124.72;4426511;32;20273;-86
2022/03/07 08:30:13;;;;;;;;;;;;;;;4.08;59.41;100129.88;4413563;32;19981;-85
2022/03/07 08:32:40;;;;;;;;;;;;;;;4.10;59.41;100120.44;4426418;32;19993;-84
2022/03/07 08:35:05;;;;;;;;;;;;;;;4.25;59.42;100115.25;4413652;32;19997;-84
2022/03/07 08:37:31;;;;;;;;;;;;;;;3.99;59.41;100104.09;4440153;32;20024;-84
2022/03/07 08:39:56;;;;;;;;;;;;;;;4.16;59.42;100101.53;4426063;32;19976;-85
2022/03/07 08:42:21;;;;;;;;;;;;;;;4.52;59.44;100085.19;4425965;32;20000;-85
2022/03/07 08:44:47;;;;;;;;;;;;;;;4.68;59.45;100088.56;4426153;32;19996;-85
2022/03/07 08:47:13;;;;;;;;;;;;;;;4.82;59.46;100082.50;4426306;32;19981;-85
2022/03/07 08:49:38;;;;;;;;;;;;;;;5.03;59.46;100081.56;4426298;32;19965;-85
2022/03/07 08:52:03;;;;;;;;;;;;;;;5.27;59.48;100088.34;4440239;32;19977;-85
2022/03/07 08:54:29;;;;;;;;;;;;;;;5.37;59.48;100089.13;4440052;32;19978;-85
2022/03/07 08:56:54;;;;;;;;;;;;;;;5.36;59.48;100082.25;4439697;32;20214;-85
2022/03/07 08:59:19;;;;;;;;;;;;;;;5.57;59.49;100087.28;4426153;32;20354;-85
2022/03/07 09:01:44;;;;;;;;;;;;;;;5.44;59.49;100091.69;4425896;32;20025;-84
2022/03/07 09:04:11;;;;;;;;;;;;;;;5.44;59.49;100091.69;4439627;32;20426;-85
2022/03/07 09:06:36;;;;;;;;;;;;;;;5.32;59.48;100096.91;4440034;32;20047;-85
2022/03/07 09:09:01;;;;;;;;;;;;;;;5.24;59.48;100094.37;4439527;32;26866;-85
2022/03/07 09:11:26;;;;;;;;;;;;;;;5.20;59.47;100099.53;4426048;32;20354;-85
2022/03/07 09:13:53;;;;;;;;;;;;;;;4.96;59.46;100089.31;4439859;32;19988;-84
2022/03/07 09:16:18;;;;;;;;;;;;;;;4.96;59.46;100082.44;4426181;32;19981;-84
2022/03/07 09:18:43;;;;;;;;;;;;;;;5.06;59.46;100084.13;4425859;32;19978;-84
2022/03/07 09:21:08;;;;;;;;;;;;;;;5.25;59.48;100087.47;4413231;32;19989;-84
2022/03/07 09:23:37;;;;;;;;;;;;;;;5.19;59.48;100085.75;4425957;32;20000;-85
2022/03/07 09:26:06;;;;;;;;;;;;;;;5.10;59.47;100072.91;4440142;32;19985;-84
2022/03/07 09:28:31;;;;;;;;;;;;;;;5.06;59.47;100081.53;4413281;32;19974;-84
2022/03/07 09:30:57;;;;;;;;;;;;;;;5.05;59.46;100085.00;4425796;32;20009;-84
2022/03/07 09:33:24;;;;;;;;;;;;;;;5.14;59.47;100081.50;4439157;32;34740;-85
2022/03/07 09:35:49;;;;;;;;;;;;;;;5.23;59.47;100079.75;4426289;32;20026;-85
2022/03/07 09:38:14;;;;;;;;;;;;;;;5.36;59.48;100080.53;4413062;32;20268;-86
2022/03/07 09:40:39;;;;;;;;;;;;;;;5.03;59.46;100083.28;4425001;32;24351;-85
2022/03/07 09:43:04;;;;;;;;;;;;;;;5.19;59.47;100082.34;4439715;32;20044;-85
2022/03/07 09:45:30;;;;;;;;;;;;;;;5.24;59.48;100076.31;4439752;32;19992;-85
2022/03/07 09:47:55;;;;;;;;;;;;;;;5.42;59.48;100083.06;4412140;32;20368;-85
2022/03/07 09:50:20;;;;;;;;;;;;;;;5.65;59.50;100074.31;4425868;32;19986;-85
2022/03/07 09:52:46;;;;;;;;;;;;;;;5.55;59.49;100079.56;4425749;32;19977;-85
2022/03/07 09:55:16;;;;;;;;;;;;;;;5.71;59.51;100075.16;4425797;32;20236;-84
2022/03/07 09:57:41;;;;;;;;;;;;;;;5.46;59.50;100078.78;4439855;32;19977;-84
2022/03/07 10:00:07;;;;;;;;;;;;;;;5.57;59.49;100086.44;4439829;32;20022;-85
2022/03/07 10:02:32;;;;;;;;;;;;;;;5.42;59.49;100077.91;4425647;32;19993;-85
2022/03/07 10:04:59;;;;;;;;;;;;;;;5.38;59.48;100076.22;4439819;32;20021;-84
2022/03/07 10:07:24;;;;;;;;;;;;;;;5.38;59.48;100081.37;4439849;32;19976;-86
2022/03/07 10:09:50;;;;;;;;;;;;;;;5.27;59.48;100079.72;4425314;32;19981;-85
2022/03/07 10:12:15;;;;;;;;;;;;;;;5.48;59.49;100079.62;4425645;32;20017;-85
2022/03/07 10:14:46;;;;;;;;;;;;;;;5.29;59.47;100081.44;4425502;32;19985;-85
2022/03/07 10:17:24;;;;;;;;;;;;;;;5.24;59.48;100076.31;4425930;32;20626;-85
2022/03/07 10:19:50;;;;;;;;;;;;;;;5.07;59.46;100079.81;4425627;32;19990;-85
2022/03/07 10:22:19;;;;;;;;;;;;;;;5.08;59.46;100072.06;4425716;32;20013;-85
2022/03/07 10:24:44;;;;;;;;;;;;;;;5.34;59.48;100077.09;4425729;32;20052;-85
2022/03/07 10:27:09;;;;;;;;;;;;;;;5.30;59.48;100066.81;4424783;32;28044;-85
2022/03/07 10:29:44;;;;;;;;;;;;;;;5.50;59.49;100067.56;4424711;32;29423;-84
2022/03/07 10:32:15;;;;;;;;;;;;;;;5.76;59.51;100063.06;4439383;32;19978;-85
2022/03/07 10:34:40;;;;;;;;;;;;;;;5.48;59.49;100062.41;4439371;32;19977;-85
2022/03/07 10:37:05;;;;;;;;;;;;;;;5.37;59.48;100063.31;4439177;32;20303;-85
2022/03/07 10:39:30;;;;;;;;;;;;;;;4.98;59.46;100065.25;4424391;32;32615;-85
2022/03/07 10:41:55;;;;;;;;;;;;;;;5.11;59.47;100064.31;4439261;32;20216;-85
2022/03/07 10:44:24;;;;;;;;;;;;;;;5.02;59.46;100061.78;4439125;32;19977;-84
2022/03/07 10:46:49;;;;;;;;;;;;;;;5.29;59.47;100055.62;4439239;32;19982;-85
2022/03/07 10:49:17;;;;;;;;;;;;;;;5.16;59.47;100056.53;4424980;32;20342;-86
2022/03/07 10:51:52;;;;;;;;;;;;;;;5.06;59.46;100052.31;4439316;32;19985;-84
2022/03/07 10:54:18;;;;;;;;;;;;;;;5.08;59.46;100040.25;4425276;32;20350;-85
2022/03/07 10:56:50;;;;;;;;;;;;;;;4.97;59.46;100044.59;4412306;32;19973;-85
2022/03/07 10:59:24;;;;;;;;;;;;;;;4.91;59.45;100043.75;4425566;32;20767;-85
2022/03/07 11:01:56;;;;;;;;;;;;;;;4.90;59.45;100039.47;4414243;32;19989;-85
2022/03/07 11:04:22;;;;;;;;;;;;;;;5.01;59.46;100038.59;4440997;32;19995;-85
2022/03/07 11:06:47;;;;;;;;;;;;;;;4.96;59.46;100032.56;4441056;32;19974;-84
2022/03/07 11:09:12;;;;;;;;;;;;;;;4.99;59.46;100030.84;4413245;32;31680;-84
2022/03/07 11:11:37;;;;;;;;;;;;;;;4.96;59.46;100020.53;4426977;32;19993;-84
2022/03/07 11:14:03;;;;;;;;;;;;;;;4.91;59.45;100022.28;4413798;32;20314;-85
2022/03/07 11:16:28;;;;;;;;;;;;;;;4.97;59.46;100023.97;4426409;32;22341;-85
2022/03/07 11:18:54;;;;;;;;;;;;;;;5.09;59.47;100018.75;4426776;32;20293;-85
2022/03/07 11:21:20;;;;;;;;;;;;;;;5.24;59.47;100021.25;4414070;32;19997;-84
2022/03/07 11:23:45;;;;;;;;;;;;;;;5.28;59.48;100006.59;4426716;32;20009;-84
2022/03/07 11:26:11;;;;;;;;;;;;;;;5.26;59.48;100006.59;4426935;32;19974;-84
2022/03/07 11:28:36;;;;;;;;;;;;;;;5.48;59.49;99999.59;4440876;32;19985;-84
2022/03/07 11:31:01;;;;;;;;;;;;;;;5.69;59.50;100006.31;4426874;32;20013;-84
2022/03/07 11:33:33;;;;;;;;;;;;;;;5.57;59.50;99994.34;4426747;32;19989;-84
2022/03/07 11:35:59;;;;;;;;;;;;;;;5.54;59.49;99995.22;4440902;32;20386;-84
2022/03/07 11:38:25;;;;;;;;;;;;;;;5.42;59.48;100000.47;4426798;32;20022;-83
2022/03/07 11:40:59;;;;;;;;;;;;;;;5.46;59.49;99991.84;4426714;32;20337;-84
2022/03/07 11:43:25;;;;;;;;;;;;;;;5.33;59.48;99984.19;4426621;32;19978;-85
2022/03/07 11:45:51;;;;;;;;;;;;;;;5.39;59.49;99981.56;4426843;32;20046;-85
2022/03/07 11:48:16;;;;;;;;;;;;;;;5.41;59.49;99980.69;4413924;32;19985;-84
2022/03/07 11:50:42;;;;;;;;;;;;;;;5.23;59.47;99981.69;4426303;32;20236;-85
2022/03/07 11:53:07;;;;;;;;;;;;;;;5.32;59.48;99982.47;4426715;32;19981;-83
2022/03/07 11:55:32;;;;;;;;;;;;;;;5.42;59.49;99973.78;4426682;32;19966;-84
2022/03/07 11:58:02;;;;;;;;;;;;;;;5.09;59.47;99974.88;4426566;32;20341;-84
2022/03/07 12:00:32;;;;;;;;;;;;;;;5.22;59.47;99979.97;4426730;32;19993;-83
2022/03/07 12:02:57;;;;;;;;;;;;;;;5.11;59.47;99974.00;4440687;32;20638;-84
2022/03/07 12:05:23;;;;;;;;;;;;;;;5.19;59.48;99977.38;4426570;32;20003;-83
2022/03/07 12:07:48;;;;;;;;;;;;;;;5.44;59.48;99974.62;4440685;32;20005;-85
2022/03/07 12:10:13;;;;;;;;;;;;;;;5.36;59.48;99974.69;4440639;32;19970;-85
2022/03/07 12:12:39;;;;;;;;;;;;;;;5.45;59.48;99976.38;4425436;32;24566;-84
2022/03/07 12:15:08;;;;;;;;;;;;;;;5.30;59.48;99974.75;4426628;32;20000;-84
2022/03/07 12:17:33;;;;;;;;;;;;;;;5.32;59.49;99972.16;4426400;32;20001;-84
2022/03/07 12:19:58;;;;;;;;;;;;;;;5.24;59.48;99973.06;4426508;32;19989;-84
2022/03/07 12:22:24;;;;;;;;;;;;;;;5.00;59.46;99973.22;4426389;32;20000;-84
2022/03/07 12:24:52;;;;;;;;;;;;;;;4.65;59.45;99965.66;4426219;32;19986;-83
2022/03/07 12:27:17;;;;;;;;;;;;;;;4.93;59.46;99974.97;4426703;32;19985;-85
2022/03/07 12:29:43;;;;;;;;;;;;;;;4.81;59.45;99963.87;4439747;32;29742;-84
2022/03/07 12:32:08;;;;;;;;;;;;;;;4.82;59.46;99960.44;4426476;32;19966;-85
2022/03/07 12:34:34;;;;;;;;;;;;;;;4.89;59.45;99959.53;4413536;32;19985;-85
2022/03/07 12:37:10;;;;;;;;;;;;;;;4.80;59.46;99955.28;4440422;32;20004;-84
2022/03/07 12:39:52;;;;;;;;;;;;;;;4.92;59.46;99946.59;4440288;32;19986;-84